Time;durP1;ratioP1;P1;durP2;ratioP2;P2;SDS_P1;SDS_P2;PMS_P1;PMS_P2;Temp;Humidity;BMP_temperature;BMP_pressure;BME280_temperature;BME280_humidity;BME280_pressure;Samples;Min_cycle;Max_cycle;Signal;HPM_P1;HPM_P2
2022/04/21 00:02:22;;;;;;;31.20;16.47;;;;;;;;;;4442257;32;20259;-54
2022/04/21 00:04:48;;;;;;;25.67;15.50;;;;;;;;;;4434224;32;20364;-54
2022/04/21 00:07:13;;;;;;;25.23;15.07;;;;;;;;;;4448228;32;20264;-54
2022/04/21 00:09:39;;;;;;;21.57;14.50;;;;;;;;;;4448749;32;20318;-56
2022/04/21 00:12:04;;;;;;;21.67;12.90;;;;;;;;;;4443715;32;20771;-55
2022/04/21 00:14:31;;;;;;;20.13;12.63;;;;;;;;;;4434308;32;20296;-55
2022/04/21 00:16:56;;;;;;;15.67;10.43;;;;;;;;;;4433571;32;20249;-55
2022/04/21 00:19:22;;;;;;;24.83;13.20;;;;;;;;;;4433972;32;20400;-54
2022/04/21 00:24:31;;;;;;;22.53;13.47;;;;;;;;;;4442895;32;20298;-54
2022/04/21 00:26:57;;;;;;;19.47;12.30;;;;;;;;;;4449248;32;20335;-53
2022/04/21 00:29:23;;;;;;;27.43;13.17;;;;;;;;;;4437802;32;20271;-54
2022/04/21 00:31:49;;;;;;;27.33;14.60;;;;;;;;;;4434001;32;20224;-54
2022/04/21 00:34:14;;;;;;;29.20;14.33;;;;;;;;;;4438370;32;20689;-54
2022/04/21 00:36:39;;;;;;;29.90;16.90;;;;;;;;;;4449118;32;20246;-55
2022/04/21 00:39:05;;;;;;;32.27;17.37;;;;;;;;;;4435851;32;20279;-53
2022/04/21 00:41:30;;;;;;;26.27;16.20;;;;;;;;;;4434137;32;20332;-53
2022/04/21 00:43:56;;;;;;;37.57;19.00;;;;;;;;;;4439069;32;20303;-53
2022/04/21 00:46:22;;;;;;;32.30;17.93;;;;;;;;;;4448688;32;20358;-53
2022/04/21 00:48:49;;;;;;;27.50;15.73;;;;;;;;;;4447648;32;20267;-54
2022/04/21 00:51:15;;;;;;;34.77;17.37;;;;;;;;;;4439716;32;20606;-54
2022/04/21 00:53:41;;;;;;;34.73;18.60;;;;;;;;;;4432665;32;20237;-53
2022/04/21 00:56:07;;;;;;;33.77;19.83;;;;;;;;;;4433804;32;20292;-53
2022/04/21 00:58:35;;;;;;;37.40;19.73;;;;;;;;;;4439656;32;20238;-53
2022/04/21 01:01:01;;;;;;;29.13;17.17;;;;;;;;;;4449379;32;20552;-53
2022/04/21 01:03:27;;;;;;;36.67;17.30;;;;;;;;;;4444249;32;20196;-53
2022/04/21 01:05:52;;;;;;;32.00;16.87;;;;;;;;;;4449551;32;20354;-52
2022/04/21 01:08:18;;;;;;;27.70;16.67;;;;;;;;;;4447683;32;20290;-51
2022/04/21 01:10:43;;;;;;;31.87;17.53;;;;;;;;;;4436166;32;20242;-53
2022/04/21 01:13:11;;;;;;;34.87;18.13;;;;;;;;;;4441226;32;20350;-50
2022/04/21 01:15:37;;;;;;;38.13;18.27;;;;;;;;;;4433320;32;20385;-52
2022/04/21 01:18:04;;;;;;;31.13;17.40;;;;;;;;;;4447702;32;20266;-52
2022/04/21 01:20:30;;;;;;;42.47;19.40;;;;;;;;;;4433468;32;20220;-52
2022/04/21 01:22:55;;;;;;;30.17;18.00;;;;;;;;;;4434137;32;20273;-51
2022/04/21 01:25:21;;;;;;;40.57;20.63;;;;;;;;;;4436743;32;20312;-53
2022/04/21 01:27:49;;;;;;;55.60;25.83;;;;;;;;;;4433279;32;20192;-54
2022/04/21 01:30:15;;;;;;;61.50;29.93;;;;;;;;;;4446269;32;20231;-55
2022/04/21 01:32:43;;;;;;;67.40;32.53;;;;;;;;;;4448570;32;20280;-54
2022/04/21 01:35:09;;;;;;;76.67;32.50;;;;;;;;;;4437154;32;20417;-55
2022/04/21 01:43:04;;;;;;;53.60;29.37;;;;;;;;;;4433740;32;20247;-53
2022/04/21 01:45:29;;;;;;;54.90;27.43;;;;;;;;;;4433138;32;20233;-54
2022/04/21 01:47:56;;;;;;;55.23;28.43;;;;;;;;;;4441533;32;20236;-53
2022/04/21 01:50:23;;;;;;;81.80;32.17;;;;;;;;;;4435717;32;20294;-53
2022/04/21 01:52:48;;;;;;;46.20;22.60;;;;;;;;;;4433022;32;20217;-54
2022/04/21 01:55:14;;;;;;;51.23;22.93;;;;;;;;;;4432694;32;20657;-53
2022/04/21 01:57:39;;;;;;;37.87;19.20;;;;;;;;;;4441349;32;20276;-54
2022/04/21 02:00:05;;;;;;;31.63;16.57;;;;;;;;;;4433855;32;20334;-54
2022/04/21 02:02:32;;;;;;;35.33;16.10;;;;;;;;;;4441822;32;20707;-53
2022/04/21 02:04:59;;;;;;;28.30;16.97;;;;;;;;;;4439692;32;20229;-53
2022/04/21 02:07:25;;;;;;;33.50;18.10;;;;;;;;;;4436632;32;20272;-54
2022/04/21 02:09:51;;;;;;;38.63;19.60;;;;;;;;;;4446778;32;20743;-55
2022/04/21 02:12:17;;;;;;;46.80;23.23;;;;;;;;;;4435095;32;20221;-54
2022/04/21 02:14:42;;;;;;;42.87;25.00;;;;;;;;;;4441828;32;20299;-56
2022/04/21 02:17:08;;;;;;;53.43;29.67;;;;;;;;;;4435116;32;20232;-55
2022/04/21 02:19:34;;;;;;;54.20;30.47;;;;;;;;;;4446518;32;20255;-54
2022/04/21 02:21:59;;;;;;;52.30;33.23;;;;;;;;;;4443895;32;20292;-54
2022/04/21 02:24:25;;;;;;;52.07;30.40;;;;;;;;;;4445211;32;20906;-53
2022/04/21 02:26:50;;;;;;;54.17;31.87;;;;;;;;;;4444896;32;20269;-53
2022/04/21 02:29:16;;;;;;;50.97;26.57;;;;;;;;;;4447180;32;20279;-54
2022/04/21 02:31:41;;;;;;;51.83;24.10;;;;;;;;;;4441778;32;20434;-52
2022/04/21 02:34:06;;;;;;;44.27;21.07;;;;;;;;;;4432860;32;20197;-53
2022/04/21 02:36:32;;;;;;;30.53;18.80;;;;;;;;;;4441429;32;20274;-51
2022/04/21 02:38:57;;;;;;;40.30;18.40;;;;;;;;;;4435833;32;20727;-53
2022/04/21 02:41:23;;;;;;;37.40;18.77;;;;;;;;;;4434648;32;20311;-54
2022/04/21 02:43:48;;;;;;;36.87;19.50;;;;;;;;;;4434889;32;20220;-53
2022/04/21 02:46:14;;;;;;;37.77;20.63;;;;;;;;;;4435020;32;20278;-53
2022/04/21 02:48:40;;;;;;;40.07;20.00;;;;;;;;;;4444918;32;20200;-53
2022/04/21 02:51:05;;;;;;;43.80;22.30;;;;;;;;;;4430143;32;20267;-53
2022/04/21 02:59:00;;;;;;;51.40;23.33;;;;;;;;;;4441672;32;20671;-51
2022/04/21 03:01:26;;;;;;;62.67;27.90;;;;;;;;;;4445994;32;20216;-53
2022/04/21 03:03:54;;;;;;;55.07;28.10;;;;;;;;;;4437340;32;20383;-52
2022/04/21 03:06:20;;;;;;;60.50;27.27;;;;;;;;;;4443960;32;20655;-52
2022/04/21 03:08:45;;;;;;;52.50;26.77;;;;;;;;;;4445588;32;20313;-52
2022/04/21 03:11:11;;;;;;;67.97;27.07;;;;;;;;;;4440585;32;20338;-53
2022/04/21 03:13:36;;;;;;;64.37;25.30;;;;;;;;;;4432372;32;20233;-53
2022/04/21 03:16:02;;;;;;;68.57;28.87;;;;;;;;;;4445539;32;20302;-52
2022/04/21 03:18:27;;;;;;;84.43;31.40;;;;;;;;;;4439188;32;20200;-53
2022/04/21 03:26:21;;;;;;;58.73;28.90;;;;;;;;;;4446396;32;20239;-53
2022/04/21 03:28:46;;;;;;;91.87;37.47;;;;;;;;;;4432135;32;20228;-52
2022/04/21 03:31:12;;;;;;;84.47;38.37;;;;;;;;;;4447543;32;20221;-52
2022/04/21 03:33:37;;;;;;;86.77;42.40;;;;;;;;;;4444783;32;20707;-52
2022/04/21 03:36:03;;;;;;;81.03;40.57;;;;;;;;;;4434164;32;20326;-52
2022/04/21 03:38:29;;;;;;;85.40;41.77;;;;;;;;;;4441277;32;20212;-52
2022/04/21 03:40:56;;;;;;;91.17;40.87;;;;;;;;;;4443775;32;20324;-52
2022/04/21 03:43:22;;;;;;;69.83;32.77;;;;;;;;;;4443992;32;20355;-51
2022/04/21 03:45:47;;;;;;;81.30;35.73;;;;;;;;;;4440850;32;20251;-52
2022/04/21 03:48:13;;;;;;;78.53;34.80;;;;;;;;;;4439370;32;20212;-52
2022/04/21 03:50:39;;;;;;;77.60;32.77;;;;;;;;;;4431872;32;20220;-51
2022/04/21 03:53:06;;;;;;;67.07;31.90;;;;;;;;;;4431430;32;20573;-52
2022/04/21 03:55:31;;;;;;;71.77;33.17;;;;;;;;;;4443867;32;20555;-54
2022/04/21 03:57:57;;;;;;;71.13;33.33;;;;;;;;;;4437773;32;20523;-53
2022/04/21 04:00:23;;;;;;;155.30;59.67;;;;;;;;;;4444079;32;20235;-52
2022/04/21 04:02:48;;;;;;;163.80;63.10;;;;;;;;;;4444786;32;20341;-53
2022/04/21 04:05:14;;;;;;;180.43;67.40;;;;;;;;;;4445044;32;20688;-52
2022/04/21 04:13:07;;;;;;;147.20;60.60;;;;;;;;;;4434984;32;20345;-52
2022/04/21 04:15:33;;;;;;;155.70;60.83;;;;;;;;;;4444298;32;20359;-52
2022/04/21 04:17:58;;;;;;;177.07;55.80;;;;;;;;;;4433228;32;20240;-52
2022/04/21 04:20:24;;;;;;;132.07;51.73;;;;;;;;;;4443456;32;20192;-52
2022/04/21 04:22:49;;;;;;;126.83;52.20;;;;;;;;;;4432253;32;20213;-52
2022/04/21 04:25:15;;;;;;;145.03;55.83;;;;;;;;;;4444166;32;20274;-52
2022/04/21 04:27:40;;;;;;;117.20;47.77;;;;;;;;;;4449430;32;20208;-52
2022/04/21 04:30:08;;;;;;;97.40;44.23;;;;;;;;;;4447742;32;20306;-52
2022/04/21 04:32:34;;;;;;;98.37;45.53;;;;;;;;;;4446298;32;20224;-53
2022/04/21 04:34:59;;;;;;;102.37;47.07;;;;;;;;;;4442401;32;20279;-52
2022/04/21 04:37:25;;;;;;;117.30;50.97;;;;;;;;;;4435310;32;20612;-53
2022/04/21 04:39:50;;;;;;;102.77;51.07;;;;;;;;;;4446733;32;20338;-54
2022/04/21 04:42:21;;;;;;;117.87;54.50;;;;;;;;;;4443034;32;20224;-54
2022/04/21 04:44:49;;;;;;;122.33;54.80;;;;;;;;;;4440796;32;20200;-53
2022/04/21 04:47:15;;;;;;;99.20;49.60;;;;;;;;;;4445641;32;20212;-54
2022/04/21 04:49:41;;;;;;;115.07;46.60;;;;;;;;;;4441007;32;20284;-54
2022/04/21 04:52:06;;;;;;;110.20;46.90;;;;;;;;;;4433406;32;20666;-53
2022/04/21 04:54:32;;;;;;;114.83;45.17;;;;;;;;;;4435008;32;20355;-53
2022/04/21 04:56:58;;;;;;;95.23;43.60;;;;;;;;;;4431964;32;20424;-54
2022/04/21 04:59:23;;;;;;;91.40;43.43;;;;;;;;;;4444052;32;20295;-54
2022/04/21 05:01:49;;;;;;;89.10;43.17;;;;;;;;;;4449613;32;20338;-55
2022/04/21 05:04:16;;;;;;;109.07;47.63;;;;;;;;;;4439000;32;20204;-53
2022/04/21 05:06:47;;;;;;;117.27;48.37;;;;;;;;;;4444466;32;20266;-52
2022/04/21 05:09:19;;;;;;;94.00;47.03;;;;;;;;;;4439357;32;20294;-52
2022/04/21 05:11:47;;;;;;;99.67;48.53;;;;;;;;;;4444580;32;20286;-53
2022/04/21 05:14:13;;;;;;;96.00;45.00;;;;;;;;;;4440431;32;20244;-55
2022/04/21 05:16:42;;;;;;;113.03;50.47;;;;;;;;;;4433181;32;20262;-53
2022/04/21 05:19:09;;;;;;;118.90;54.23;;;;;;;;;;4433224;32;20209;-54
2022/04/21 05:21:36;;;;;;;112.33;54.03;;;;;;;;;;4433143;32;20319;-54
2022/04/21 05:24:03;;;;;;;112.17;54.13;;;;;;;;;;4436156;32;20357;-54
2022/04/21 05:26:29;;;;;;;128.33;56.17;;;;;;;;;;4433138;32;20216;-54
2022/04/21 05:28:56;;;;;;;123.83;58.50;;;;;;;;;;4433445;32;20217;-55
2022/04/21 05:31:23;;;;;;;128.57;59.60;;;;;;;;;;4433355;32;20691;-54
2022/04/21 05:33:49;;;;;;;136.60;65.37;;;;;;;;;;4444423;32;20236;-55
2022/04/21 05:36:15;;;;;;;140.70;65.00;;;;;;;;;;4446381;32;20906;-54
2022/04/21 05:38:41;;;;;;;151.07;69.73;;;;;;;;;;4440458;32;20304;-55
2022/04/21 05:41:07;;;;;;;172.00;78.00;;;;;;;;;;4444963;32;20275;-54
2022/04/21 05:43:43;;;;;;;175.03;79.50;;;;;;;;;;4440118;32;20593;-53
2022/04/21 05:46:12;;;;;;;151.83;71.13;;;;;;;;;;4448822;32;20216;-55
2022/04/21 05:48:39;;;;;;;171.30;78.67;;;;;;;;;;4446304;32;20227;-55
2022/04/21 05:51:05;;;;;;;179.77;75.57;;;;;;;;;;4442124;32;20225;-53
2022/04/21 05:53:36;;;;;;;154.47;74.67;;;;;;;;;;4438985;32;20217;-54
2022/04/21 05:56:04;;;;;;;170.97;74.27;;;;;;;;;;4447538;32;20349;-55
2022/04/21 05:58:30;;;;;;;146.80;74.20;;;;;;;;;;4442931;32;20193;-54
2022/04/21 06:00:57;;;;;;;177.30;82.53;;;;;;;;;;4445430;32;20467;-54
2022/04/21 06:03:22;;;;;;;176.77;80.07;;;;;;;;;;4443335;32;20279;-53
2022/04/21 06:05:48;;;;;;;174.93;79.87;;;;;;;;;;4437204;32;20209;-54
2022/04/21 06:08:14;;;;;;;155.10;74.73;;;;;;;;;;4443013;32;20193;-54
2022/04/21 06:10:40;;;;;;;141.13;70.37;;;;;;;;;;4432376;32;20299;-54
2022/04/21 06:13:05;;;;;;;121.67;61.10;;;;;;;;;;4435499;32;20250;-53
2022/04/21 06:15:32;;;;;;;127.17;60.97;;;;;;;;;;4433348;32;20417;-53
2022/04/21 06:18:01;;;;;;;111.93;57.90;;;;;;;;;;4436196;32;20274;-53
2022/04/21 06:20:27;;;;;;;112.50;55.67;;;;;;;;;;4440606;32;21176;-53
2022/04/21 06:22:56;;;;;;;107.43;57.60;;;;;;;;;;4445488;32;20746;-54
2022/04/21 06:25:22;;;;;;;146.47;70.10;;;;;;;;;;4445960;32;20295;-54
2022/04/21 06:27:52;;;;;;;135.23;71.87;;;;;;;;;;4445044;32;20239;-54
2022/04/21 06:30:18;;;;;;;133.50;66.80;;;;;;;;;;4431761;32;20255;-53
2022/04/21 06:32:43;;;;;;;140.63;68.27;;;;;;;;;;4437508;32;20216;-54
2022/04/21 06:35:09;;;;;;;141.67;68.17;;;;;;;;;;4445431;32;20284;-54
2022/04/21 06:37:35;;;;;;;148.33;69.27;;;;;;;;;;4433044;32;20259;-55
2022/04/21 06:40:01;;;;;;;140.67;70.30;;;;;;;;;;4440763;32;20863;-55
2022/04/21 06:42:27;;;;;;;128.40;62.57;;;;;;;;;;4445167;32;20224;-54
2022/04/21 06:50:20;;;;;;;103.70;60.00;;;;;;;;;;4442727;32;20227;-54
2022/04/21 06:52:46;;;;;;;125.57;60.07;;;;;;;;;;4446543;32;20607;-54
2022/04/21 06:55:11;;;;;;;121.67;61.53;;;;;;;;;;4445966;32;20379;-53
2022/04/21 06:57:36;;;;;;;142.63;67.27;;;;;;;;;;4437386;32;20386;-54
2022/04/21 07:00:03;;;;;;;132.27;65.43;;;;;;;;;;4435699;32;20327;-54
2022/04/21 07:02:35;;;;;;;132.07;61.83;;;;;;;;;;4437865;32;20216;-54
2022/04/21 07:05:12;;;;;;;111.47;56.73;;;;;;;;;;4437883;32;20200;-54
2022/04/21 07:07:42;;;;;;;124.33;60.10;;;;;;;;;;4437950;32;20283;-54
2022/04/21 07:10:09;;;;;;;111.57;55.30;;;;;;;;;;4435992;32;20615;-54
2022/04/21 07:12:35;;;;;;;122.03;55.83;;;;;;;;;;4437438;32;20349;-55
2022/04/21 07:15:03;;;;;;;103.60;47.87;;;;;;;;;;4437763;32;20247;-54
2022/04/21 07:17:29;;;;;;;92.27;48.93;;;;;;;;;;4436644;32;20661;-55
2022/04/21 07:19:54;;;;;;;103.93;48.80;;;;;;;;;;4432218;32;20267;-54
2022/04/21 07:22:21;;;;;;;85.40;45.33;;;;;;;;;;4433132;32;20404;-55
2022/04/21 07:24:47;;;;;;;92.00;47.77;;;;;;;;;;4439474;32;20652;-54
2022/04/21 07:27:13;;;;;;;67.27;38.13;;;;;;;;;;4435408;32;20274;-55
2022/04/21 07:29:38;;;;;;;66.53;35.13;;;;;;;;;;4437826;32;20224;-55
2022/04/21 07:32:05;;;;;;;58.90;34.27;;;;;;;;;;4434488;32;20679;-55
2022/04/21 07:34:30;;;;;;;58.63;33.77;;;;;;;;;;4435830;32;20283;-56
2022/04/21 07:36:56;;;;;;;62.70;32.33;;;;;;;;;;4444682;32;20267;-54
2022/04/21 07:39:22;;;;;;;55.67;31.50;;;;;;;;;;4439341;32;20731;-53
2022/04/21 07:41:47;;;;;;;52.43;28.37;;;;;;;;;;4431100;32;20279;-54
2022/04/21 07:44:13;;;;;;;53.60;29.13;;;;;;;;;;4439767;32;20283;-55
2022/04/21 07:46:38;;;;;;;44.27;25.67;;;;;;;;;;4443253;32;20232;-54
2022/04/21 07:51:48;;;;;;;40.20;24.00;;;;;;;;;;4432845;32;20285;-53
2022/04/21 07:54:14;;;;;;;44.40;25.00;;;;;;;;;;4431429;32;20279;-54
2022/04/21 07:56:39;;;;;;;39.63;25.67;;;;;;;;;;4443766;32;20609;-55
2022/04/21 07:59:04;;;;;;;41.80;22.83;;;;;;;;;;4445049;32;20501;-55
2022/04/21 08:01:30;;;;;;;39.83;24.17;;;;;;;;;;4447616;32;20246;-55
2022/04/21 08:04:01;;;;;;;41.97;24.70;;;;;;;;;;4435338;32;20304;-54
2022/04/21 08:06:27;;;;;;;47.13;23.93;;;;;;;;;;4441924;32;20225;-54
2022/04/21 08:08:52;;;;;;;50.57;23.70;;;;;;;;;;4450049;32;20388;-55
2022/04/21 08:11:18;;;;;;;35.97;22.53;;;;;;;;;;4444869;32;20287;-55
2022/04/21 08:13:47;;;;;;;44.73;22.70;;;;;;;;;;4446740;32;20645;-53
2022/04/21 08:16:12;;;;;;;40.23;21.87;;;;;;;;;;4448366;32;20466;-54
2022/04/21 08:18:38;;;;;;;39.87;21.27;;;;;;;;;;4435727;32;20198;-53
2022/04/21 08:21:03;;;;;;;42.20;22.63;;;;;;;;;;4445093;32;20299;-55
2022/04/21 08:23:29;;;;;;;39.17;22.83;;;;;;;;;;4450207;32;20715;-55
2022/04/21 08:34:06;;;;;;;36.77;20.63;;;;;;;;;;4434866;32;20291;-54
2022/04/21 08:36:32;;;;;;;33.20;20.60;;;;;;;;;;4446552;32;20225;-54
2022/04/21 08:38:57;;;;;;;31.20;18.00;;;;;;;;;;4440015;32;20327;-55
2022/04/21 08:41:26;;;;;;;32.03;20.00;;;;;;;;;;4435627;32;20327;-56
2022/04/21 08:43:55;;;;;;;28.83;17.47;;;;;;;;;;4435944;32;20786;-55
2022/04/21 08:46:25;;;;;;;32.30;17.97;;;;;;;;;;4433913;32;20581;-55
2022/04/21 08:48:51;;;;;;;25.60;15.40;;;;;;;;;;4444939;32;20259;-54
2022/04/21 08:51:20;;;;;;;37.37;17.87;;;;;;;;;;4433184;32;20558;-54
2022/04/21 08:53:45;;;;;;;26.13;16.33;;;;;;;;;;4433864;32;20314;-55
2022/04/21 08:56:12;;;;;;;24.97;15.93;;;;;;;;;;4433424;32;20830;-54
2022/04/21 08:58:37;;;;;;;22.70;12.40;;;;;;;;;;4439879;32;20246;-54
2022/04/21 09:01:03;;;;;;;23.23;13.73;;;;;;;;;;4436375;32;20626;-54
2022/04/21 09:03:31;;;;;;;26.10;12.17;;;;;;;;;;4439853;32;20750;-55
2022/04/21 09:05:57;;;;;;;17.13;10.67;;;;;;;;;;4448171;32;20535;-55
2022/04/21 09:08:26;;;;;;;16.73;10.27;;;;;;;;;;4448547;32;20406;-54
2022/04/21 09:11:09;;;;;;;25.60;11.43;;;;;;;;;;4437759;32;20363;-54
2022/04/21 09:13:39;;;;;;;24.70;11.53;;;;;;;;;;4437418;32;20232;-53
2022/04/21 09:16:07;;;;;;;17.93;9.60;;;;;;;;;;4440120;32;20322;-53
2022/04/21 09:18:46;;;;;;;20.23;9.87;;;;;;;;;;4435343;32;20251;-54
2022/04/21 09:21:17;;;;;;;21.43;12.10;;;;;;;;;;4433584;32;20333;-54
2022/04/21 09:23:47;;;;;;;16.17;9.57;;;;;;;;;;4444173;32;20291;-54
2022/04/21 09:26:15;;;;;;;12.13;9.30;;;;;;;;;;4436337;32;20293;-53
2022/04/21 09:28:40;;;;;;;9.73;7.60;;;;;;;;;;4439848;32;20205;-54
2022/04/21 09:31:08;;;;;;;9.27;7.50;;;;;;;;;;4430753;32;20254;-53
2022/04/21 09:33:36;;;;;;;16.80;8.23;;;;;;;;;;4440634;32;20609;-54
2022/04/21 09:36:06;;;;;;;15.33;8.40;;;;;;;;;;4445637;32;20364;-54
2022/04/21 09:38:34;;;;;;;11.53;8.13;;;;;;;;;;4439277;32;20268;-53
2022/04/21 09:41:10;;;;;;;11.80;8.60;;;;;;;;;;4442655;32;20533;-54
2022/04/21 09:43:41;;;;;;;15.37;10.37;;;;;;;;;;4433376;32;20329;-54
2022/04/21 09:46:19;;;;;;;12.60;9.13;;;;;;;;;;4445907;32;20216;-52
2022/04/21 09:48:46;;;;;;;21.27;10.90;;;;;;;;;;4436173;32;20631;-54
2022/04/21 09:51:17;;;;;;;16.83;11.10;;;;;;;;;;4434596;32;20385;-54
2022/04/21 09:53:52;;;;;;;13.77;9.30;;;;;;;;;;4436177;32;20248;-54
2022/04/21 09:56:28;;;;;;;18.43;10.07;;;;;;;;;;4440338;32;20318;-55
2022/04/21 09:58:54;;;;;;;16.53;8.83;;;;;;;;;;4442207;32;20197;-53
2022/04/21 10:01:20;;;;;;;16.77;10.20;;;;;;;;;;4433382;32;20220;-54
2022/04/21 10:03:47;;;;;;;14.57;10.40;;;;;;;;;;4438854;32;20271;-53
2022/04/21 10:06:13;;;;;;;25.00;14.13;;;;;;;;;;4447363;32;20315;-54
2022/04/21 10:08:41;;;;;;;30.53;17.30;;;;;;;;;;4439609;32;20699;-54
2022/04/21 10:11:07;;;;;;;22.47;14.83;;;;;;;;;;4435454;32;20220;-54
2022/04/21 10:13:33;;;;;;;31.33;12.93;;;;;;;;;;4432947;32;20204;-54
2022/04/21 10:16:00;;;;;;;25.67;14.97;;;;;;;;;;4441831;32;20680;-54
2022/04/21 10:18:26;;;;;;;19.53;13.53;;;;;;;;;;4447630;32;20243;-54
2022/04/21 10:20:52;;;;;;;19.27;13.83;;;;;;;;;;4443054;32;20706;-54
2022/04/21 10:23:19;;;;;;;20.83;13.43;;;;;;;;;;4435439;32;20283;-55
2022/04/21 10:25:45;;;;;;;21.00;13.10;;;;;;;;;;4442881;32;20316;-55
2022/04/21 10:28:36;;;;;;;17.30;11.20;;;;;;;;;;4432141;32;20213;-54
2022/04/21 10:31:29;;;;;;;19.03;10.87;;;;;;;;;;4440482;32;20399;-53
2022/04/21 10:33:56;;;;;;;21.30;10.63;;;;;;;;;;4443159;32;20224;-54
2022/04/21 10:36:41;;;;;;;20.87;11.50;;;;;;;;;;4444663;32;20597;-54
2022/04/21 10:39:19;;;;;;;15.30;10.80;;;;;;;;;;4435804;32;20285;-54
2022/04/21 10:41:45;;;;;;;19.87;10.87;;;;;;;;;;4433675;32;20291;-54
2022/04/21 10:44:27;;;;;;;16.17;10.83;;;;;;;;;;4437211;32;20334;-53
2022/04/21 10:47:30;;;;;;;18.97;11.83;;;;;;;;;;4442713;32;20297;-54
2022/04/21 10:50:10;;;;;;;29.53;14.87;;;;;;;;;;4439193;32;20642;-54
2022/04/21 10:57:53;;;;;;;27.17;17.00;;;;;;;;;;4443922;32;20322;-54
2022/04/21 11:00:29;;;;;;;21.20;14.93;;;;;;;;;;4436141;32;20319;-54
2022/04/21 11:03:04;;;;;;;23.87;16.00;;;;;;;;;;4440784;32;20212;-54
2022/04/21 11:05:38;;;;;;;25.33;15.63;;;;;;;;;;4435074;32;20248;-55
2022/04/21 11:08:11;;;;;;;33.27;17.33;;;;;;;;;;4431639;32;20327;-55
2022/04/21 11:10:37;;;;;;;33.90;13.33;;;;;;;;;;4434216;32;20267;-55
2022/04/21 11:13:03;;;;;;;23.97;12.53;;;;;;;;;;4443224;32;20236;-55
2022/04/21 11:15:36;;;;;;;31.47;14.20;;;;;;;;;;4441848;32;20605;-54
2022/04/21 11:18:27;;;;;;;26.67;14.27;;;;;;;;;;4443602;32;20332;-55
2022/04/21 11:21:19;;;;;;;24.63;15.00;;;;;;;;;;4439736;32;20316;-54
2022/04/21 11:23:44;;;;;;;26.67;15.00;;;;;;;;;;4436430;32;20566;-55
2022/04/21 11:26:10;;;;;;;22.20;13.03;;;;;;;;;;4440398;32;20220;-54
2022/04/21 11:28:41;;;;;;;15.77;10.27;;;;;;;;;;4431015;32;20294;-54
2022/04/21 11:31:07;;;;;;;22.60;10.33;;;;;;;;;;4444792;32;20321;-54
2022/04/21 11:33:32;;;;;;;19.70;10.47;;;;;;;;;;4434775;32;20678;-56
2022/04/21 11:36:05;;;;;;;15.77;10.63;;;;;;;;;;4436517;32;20335;-55
2022/04/21 11:38:34;;;;;;;15.17;11.40;;;;;;;;;;4443653;32;20223;-54
2022/04/21 11:41:04;;;;;;;20.00;12.20;;;;;;;;;;4447073;32;20648;-54
2022/04/21 11:43:30;;;;;;;27.33;12.33;;;;;;;;;;4444250;32;20197;-55
2022/04/21 11:45:56;;;;;;;21.17;12.03;;;;;;;;;;4434390;32;20247;-55
2022/04/21 11:48:27;;;;;;;17.47;12.53;;;;;;;;;;4439216;32;20386;-55
2022/04/21 11:50:53;;;;;;;26.23;13.50;;;;;;;;;;4440513;32;20220;-55
2022/04/21 11:53:19;;;;;;;25.43;13.03;;;;;;;;;;4440063;32;20317;-56
2022/04/21 11:55:46;;;;;;;20.03;11.50;;;;;;;;;;4437931;32;20220;-55
2022/04/21 11:58:12;;;;;;;19.87;11.17;;;;;;;;;;4442643;32;20307;-55
2022/04/21 12:08:51;;;;;;;20.07;11.30;;;;;;;;;;4441213;32;20258;-55
2022/04/21 12:11:18;;;;;;;17.87;12.97;;;;;;;;;;4441276;32;20312;-55
2022/04/21 12:13:46;;;;;;;24.53;13.33;;;;;;;;;;4441373;32;20533;-54
2022/04/21 12:16:41;;;;;;;16.57;11.33;;;;;;;;;;4449379;32;20334;-55
2022/04/21 12:19:18;;;;;;;15.87;9.90;;;;;;;;;;4435022;32;20248;-55
2022/04/21 12:22:07;;;;;;;20.10;10.10;;;;;;;;;;4438193;32;20216;-55
2022/04/21 12:24:36;;;;;;;14.33;10.10;;;;;;;;;;4438614;32;20287;-55
2022/04/21 12:27:05;;;;;;;24.87;10.27;;;;;;;;;;4438551;32;20347;-54
2022/04/21 12:29:44;;;;;;;14.73;9.47;;;;;;;;;;4435973;32;20726;-55
2022/04/21 12:32:09;;;;;;;13.93;9.90;;;;;;;;;;4435028;32;20315;-54
2022/04/21 12:34:39;;;;;;;17.23;8.50;;;;;;;;;;4434721;32;20680;-54
2022/04/21 12:37:06;;;;;;;8.77;6.60;;;;;;;;;;4436341;32;20224;-54
2022/04/21 12:39:32;;;;;;;17.03;8.87;;;;;;;;;;4439953;32;20298;-55
2022/04/21 12:41:58;;;;;;;17.03;8.50;;;;;;;;;;4440100;32;20295;-56
2022/04/21 12:44:25;;;;;;;8.47;6.67;;;;;;;;;;4436395;32;20237;-55
2022/04/21 12:47:01;;;;;;;14.73;7.30;;;;;;;;;;4441370;32;20220;-54
2022/04/21 12:49:58;;;;;;;10.40;8.17;;;;;;;;;;4440214;32;20201;-56
2022/04/21 12:52:46;;;;;;;10.37;6.93;;;;;;;;;;4440358;32;20304;-55
2022/04/21 12:55:22;;;;;;;15.03;8.20;;;;;;;;;;4436969;32;20272;-54
2022/04/21 12:58:05;;;;;;;12.27;8.13;;;;;;;;;;4441692;32;20304;-55
2022/04/21 13:00:32;;;;;;;11.97;7.67;;;;;;;;;;4438579;32;20263;-54
2022/04/21 13:02:59;;;;;;;12.57;7.53;;;;;;;;;;4437099;32;20249;-55
2022/04/21 13:05:25;;;;;;;11.87;8.10;;;;;;;;;;4436496;32;20302;-54
2022/04/21 13:07:50;;;;;;;11.60;7.63;;;;;;;;;;4436625;32;20568;-55
2022/04/21 13:10:16;;;;;;;14.97;8.77;;;;;;;;;;4437280;32;20292;-53
2022/04/21 13:12:42;;;;;;;12.97;8.10;;;;;;;;;;4437189;32;20759;-55
2022/04/21 13:15:08;;;;;;;16.53;10.47;;;;;;;;;;4432768;32;20304;-54
2022/04/21 13:17:34;;;;;;;14.50;8.87;;;;;;;;;;4435717;32;20220;-54
2022/04/21 13:20:00;;;;;;;17.10;8.17;;;;;;;;;;4440828;32;20754;-54
2022/04/21 13:22:25;;;;;;;14.17;8.47;;;;;;;;;;4441766;32;20225;-54
2022/04/21 13:24:51;;;;;;;11.37;7.40;;;;;;;;;;4431896;32;20362;-54
2022/04/21 13:27:16;;;;;;;10.20;8.50;;;;;;;;;;4443518;32;20330;-54
2022/04/21 13:29:43;;;;;;;17.23;8.40;;;;;;;;;;4438544;32;20303;-53
2022/04/21 13:34:53;;;;;;;14.30;8.97;;;;;;;;;;4439875;32;20695;-54
2022/04/21 13:37:19;;;;;;;14.63;9.50;;;;;;;;;;4440976;32;20240;-53
2022/04/21 13:39:44;;;;;;;12.63;8.73;;;;;;;;;;4434308;32;20294;-55
2022/04/21 13:42:10;;;;;;;14.60;9.97;;;;;;;;;;4447172;32;20212;-54
2022/04/21 13:44:36;;;;;;;12.93;6.70;;;;;;;;;;4440912;32;20302;-53
2022/04/21 13:47:02;;;;;;;11.23;7.47;;;;;;;;;;4433106;32;20315;-54
2022/04/21 13:49:28;;;;;;;15.40;8.27;;;;;;;;;;4432886;32;20643;-54
2022/04/21 13:51:54;;;;;;;14.53;9.50;;;;;;;;;;4432896;32;20300;-54
2022/04/21 13:54:20;;;;;;;19.17;8.83;;;;;;;;;;4435385;32;20243;-54
2022/04/21 13:56:46;;;;;;;19.10;8.80;;;;;;;;;;4447567;32;20232;-53
2022/04/21 13:59:11;;;;;;;12.53;9.00;;;;;;;;;;4433452;32;20304;-53
2022/04/21 14:01:37;;;;;;;24.60;10.07;;;;;;;;;;4433432;32;20229;-54
2022/04/21 14:04:03;;;;;;;15.07;10.03;;;;;;;;;;4436079;32;20415;-55
2022/04/21 14:06:29;;;;;;;17.33;12.20;;;;;;;;;;4448116;32;20315;-54
2022/04/21 14:08:54;;;;;;;19.90;12.50;;;;;;;;;;4438531;32;20354;-54
2022/04/21 14:11:21;;;;;;;19.10;11.17;;;;;;;;;;4438532;32;20653;-54
2022/04/21 14:13:47;;;;;;;23.37;12.13;;;;;;;;;;4432732;32;20331;-53
2022/04/21 14:16:14;;;;;;;20.80;11.87;;;;;;;;;;4446291;32;20289;-53
2022/04/21 14:18:39;;;;;;;25.40;13.30;;;;;;;;;;4443517;32;20598;-55
2022/04/21 14:21:08;;;;;;;24.77;9.43;;;;;;;;;;4436229;32;20292;-54
2022/04/21 14:23:39;;;;;;;14.33;7.10;;;;;;;;;;4435733;32;20236;-54
2022/04/21 14:26:09;;;;;;;9.70;5.53;;;;;;;;;;4439191;32;20247;-54
2022/04/21 14:28:38;;;;;;;9.00;5.90;;;;;;;;;;4446259;32;20213;-54
2022/04/21 14:31:03;;;;;;;9.37;5.23;;;;;;;;;;4432422;32;20225;-54
2022/04/21 14:33:29;;;;;;;10.77;5.60;;;;;;;;;;4438563;32;20286;-56
2022/04/21 14:35:54;;;;;;;5.40;4.10;;;;;;;;;;4434910;32;20240;-55
2022/04/21 14:44:10;;;;;;;9.60;5.10;;;;;;;;;;4442361;32;20357;-54
2022/04/21 14:46:44;;;;;;;16.87;5.63;;;;;;;;;;4436096;32;20307;-54
2022/04/21 14:49:12;;;;;;;9.40;5.80;;;;;;;;;;4446895;32;20227;-54
2022/04/21 14:51:38;;;;;;;14.90;5.93;;;;;;;;;;4447111;32;20398;-56
2022/04/21 14:54:05;;;;;;;11.17;6.23;;;;;;;;;;4443957;32;20593;-54
2022/04/21 14:56:38;;;;;;;13.90;6.00;;;;;;;;;;4439824;32;20612;-54
2022/04/21 14:59:04;;;;;;;14.67;6.03;;;;;;;;;;4441788;32;20289;-54
2022/04/21 15:01:30;;;;;;;12.77;6.57;;;;;;;;;;4445278;32;20232;-54
2022/04/21 15:03:56;;;;;;;36.47;15.10;;;;;;;;;;4435832;32;20307;-54
2022/04/21 15:06:21;;;;;;;69.03;28.33;;;;;;;;;;4439967;32;20610;-55
2022/04/21 15:08:47;;;;;;;27.10;14.67;;;;;;;;;;4447406;32;20312;-54
2022/04/21 15:11:12;;;;;;;22.40;12.13;;;;;;;;;;4443982;32;20245;-54
2022/04/21 15:13:38;;;;;;;92.03;39.17;;;;;;;;;;4434087;32;20394;-54
2022/04/21 15:16:04;;;;;;;80.63;37.73;;;;;;;;;;4437398;32;20692;-53
2022/04/21 15:18:30;;;;;;;50.13;25.20;;;;;;;;;;4435449;32;20219;-55
2022/04/21 15:20:57;;;;;;;116.00;51.37;;;;;;;;;;4436450;32;20236;-55
2022/04/21 15:23:23;;;;;;;47.37;22.77;;;;;;;;;;4436708;32;20317;-54